sensor_id;sensor_type;location;lat;lon;timestamp;P1;durP1;ratioP1;P2;durP2;ratioP2
29816;SDS011;16805;52.956;5.906;2024-01-30T00:01:01;17.70;;;12.48;;
29816;SDS011;16805;52.956;5.906;2024-01-30T00:03:26;14.55;;;12.50;;
29816;SDS011;16805;52.956;5.906;2024-01-30T00:05:53;17.60;;;12.20;;
29816;SDS011;16805;52.956;5.906;2024-01-30T00:08:18;14.82;;;10.73;;
29816;SDS011;16805;52.956;5.906;2024-01-30T00:10:44;13.23;;;11.80;;
29816;SDS011;16805;52.956;5.906;2024-01-30T00:13:09;15.00;;;11.85;;
29816;SDS011;16805;52.956;5.906;2024-01-30T00:15:35;16.08;;;12.52;;
29816;SDS011;16805;52.956;5.906;2024-01-30T00:18:00;17.25;;;11.52;;
29816;SDS011;16805;52.956;5.906;2024-01-30T00:20:26;16.77;;;12.07;;
29816;SDS011;16805;52.956;5.906;2024-01-30T00:22:52;13.82;;;11.65;;
29816;SDS011;16805;52.956;5.906;2024-01-30T00:25:17;14.68;;;11.10;;
29816;SDS011;16805;52.956;5.906;2024-01-30T00:27:43;15.10;;;11.02;;
29816;SDS011;16805;52.956;5.906;2024-01-30T00:30:09;14.68;;;11.82;;
29816;SDS011;16805;52.956;5.906;2024-01-30T00:32:35;12.88;;;9.73;;
29816;SDS011;16805;52.956;5.906;2024-01-30T00:35:00;13.00;;;10.90;;
29816;SDS011;16805;52.956;5.906;2024-01-30T00:37:26;18.10;;;11.70;;
29816;SDS011;16805;52.956;5.906;2024-01-30T00:39:51;14.68;;;9.85;;
29816;SDS011;16805;52.956;5.906;2024-01-30T00:42:17;11.48;;;10.05;;
29816;SDS011;16805;52.956;5.906;2024-01-30T00:44:43;12.65;;;9.27;;
29816;SDS011;16805;52.956;5.906;2024-01-30T00:47:08;19.88;;;11.32;;
29816;SDS011;16805;52.956;5.906;2024-01-30T00:49:34;13.35;;;10.25;;
29816;SDS011;16805;52.956;5.906;2024-01-30T00:51:59;14.23;;;11.10;;
29816;SDS011;16805;52.956;5.906;2024-01-30T00:54:25;13.63;;;10.90;;
29816;SDS011;16805;52.956;5.906;2024-01-30T00:56:51;15.95;;;10.40;;
29816;SDS011;16805;52.956;5.906;2024-01-30T00:59:16;13.73;;;10.02;;
29816;SDS011;16805;52.956;5.906;2024-01-30T01:01:42;10.50;;;9.25;;
29816;SDS011;16805;52.956;5.906;2024-01-30T01:04:07;12.05;;;10.43;;
29816;SDS011;16805;52.956;5.906;2024-01-30T01:06:33;14.55;;;10.38;;
29816;SDS011;16805;52.956;5.906;2024-01-30T01:08:58;17.92;;;12.45;;
29816;SDS011;16805;52.956;5.906;2024-01-30T01:11:24;11.77;;;10.32;;
29816;SDS011;16805;52.956;5.906;2024-01-30T01:13:49;11.02;;;9.00;;
29816;SDS011;16805;52.956;5.906;2024-01-30T01:16:15;13.10;;;8.70;;
29816;SDS011;16805;52.956;5.906;2024-01-30T01:18:40;13.73;;;9.85;;
29816;SDS011;16805;52.956;5.906;2024-01-30T01:21:06;12.50;;;9.75;;
29816;SDS011;16805;52.956;5.906;2024-01-30T01:23:32;12.45;;;10.25;;
29816;SDS011;16805;52.956;5.906;2024-01-30T01:25:57;14.27;;;10.57;;
29816;SDS011;16805;52.956;5.906;2024-01-30T01:28:24;14.45;;;10.48;;
29816;SDS011;16805;52.956;5.906;2024-01-30T01:30:50;17.92;;;10.90;;
29816;SDS011;16805;52.956;5.906;2024-01-30T01:33:16;13.48;;;8.95;;
29816;SDS011;16805;52.956;5.906;2024-01-30T01:35:42;14.57;;;9.20;;
29816;SDS011;16805;52.956;5.906;2024-01-30T01:38:08;12.88;;;9.00;;
29816;SDS011;16805;52.956;5.906;2024-01-30T01:40:33;12.55;;;9.45;;
29816;SDS011;16805;52.956;5.906;2024-01-30T01:43:02;14.82;;;9.93;;
29816;SDS011;16805;52.956;5.906;2024-01-30T01:45:28;13.65;;;11.95;;
29816;SDS011;16805;52.956;5.906;2024-01-30T01:47:54;11.90;;;9.40;;
29816;SDS011;16805;52.956;5.906;2024-01-30T01:50:20;12.02;;;8.75;;
29816;SDS011;16805;52.956;5.906;2024-01-30T01:52:49;14.00;;;9.57;;
29816;SDS011;16805;52.956;5.906;2024-01-30T01:55:16;14.07;;;9.68;;
29816;SDS011;16805;52.956;5.906;2024-01-30T01:57:43;12.68;;;10.30;;
29816;SDS011;16805;52.956;5.906;2024-01-30T02:00:10;11.07;;;8.70;;
29816;SDS011;16805;52.956;5.906;2024-01-30T02:02:36;10.45;;;8.70;;
29816;SDS011;16805;52.956;5.906;2024-01-30T02:05:04;13.15;;;11.55;;
29816;SDS011;16805;52.956;5.906;2024-01-30T02:07:30;13.70;;;9.52;;
29816;SDS011;16805;52.956;5.906;2024-01-30T02:09:55;15.32;;;10.13;;
29816;SDS011;16805;52.956;5.906;2024-01-30T02:12:21;12.82;;;9.50;;
29816;SDS011;16805;52.956;5.906;2024-01-30T02:14:47;12.20;;;8.93;;
29816;SDS011;16805;52.956;5.906;2024-01-30T02:17:13;13.27;;;9.75;;
29816;SDS011;16805;52.956;5.906;2024-01-30T02:19:40;14.40;;;10.75;;
29816;SDS011;16805;52.956;5.906;2024-01-30T02:22:06;17.40;;;10.52;;
29816;SDS011;16805;52.956;5.906;2024-01-30T02:24:32;13.85;;;9.70;;
29816;SDS011;16805;52.956;5.906;2024-01-30T02:26:57;15.27;;;9.93;;
29816;SDS011;16805;52.956;5.906;2024-01-30T02:29:23;12.27;;;9.70;;
29816;SDS011;16805;52.956;5.906;2024-01-30T02:31:49;12.57;;;8.80;;
29816;SDS011;16805;52.956;5.906;2024-01-30T02:34:14;16.58;;;10.95;;
29816;SDS011;16805;52.956;5.906;2024-01-30T02:36:43;17.08;;;10.93;;
29816;SDS011;16805;52.956;5.906;2024-01-30T02:39:09;19.48;;;11.48;;
29816;SDS011;16805;52.956;5.906;2024-01-30T02:41:35;13.88;;;9.40;;
29816;SDS011;16805;52.956;5.906;2024-01-30T02:44:01;14.50;;;10.85;;
29816;SDS011;16805;52.956;5.906;2024-01-30T02:46:27;15.63;;;10.93;;
29816;SDS011;16805;52.956;5.906;2024-01-30T02:48:52;10.85;;;8.27;;
29816;SDS011;16805;52.956;5.906;2024-01-30T02:51:18;13.93;;;8.70;;
29816;SDS011;16805;52.956;5.906;2024-01-30T02:53:43;13.80;;;7.95;;
29816;SDS011;16805;52.956;5.906;2024-01-30T02:56:09;19.80;;;10.65;;
29816;SDS011;16805;52.956;5.906;2024-01-30T02:58:35;16.73;;;11.00;;
29816;SDS011;16805;52.956;5.906;2024-01-30T03:01:02;12.63;;;8.52;;
29816;SDS011;16805;52.956;5.906;2024-01-30T03:03:28;12.35;;;9.10;;
29816;SDS011;16805;52.956;5.906;2024-01-30T03:05:53;17.17;;;10.70;;
29816;SDS011;16805;52.956;5.906;2024-01-30T03:08:19;15.63;;;9.65;;
29816;SDS011;16805;52.956;5.906;2024-01-30T03:10:45;15.82;;;9.82;;
29816;SDS011;16805;52.956;5.906;2024-01-30T03:13:10;12.73;;;9.88;;
29816;SDS011;16805;52.956;5.906;2024-01-30T03:15:36;13.85;;;9.07;;
29816;SDS011;16805;52.956;5.906;2024-01-30T03:18:02;18.25;;;10.10;;
29816;SDS011;16805;52.956;5.906;2024-01-30T03:20:28;10.82;;;8.63;;
29816;SDS011;16805;52.956;5.906;2024-01-30T03:22:54;10.90;;;8.90;;
29816;SDS011;16805;52.956;5.906;2024-01-30T03:25:20;17.73;;;8.88;;
29816;SDS011;16805;52.956;5.906;2024-01-30T03:27:46;13.48;;;7.25;;
29816;SDS011;16805;52.956;5.906;2024-01-30T03:30:11;11.40;;;9.38;;
29816;SDS011;16805;52.956;5.906;2024-01-30T03:32:37;12.73;;;9.70;;
29816;SDS011;16805;52.956;5.906;2024-01-30T03:35:03;14.38;;;8.93;;
29816;SDS011;16805;52.956;5.906;2024-01-30T03:37:29;13.10;;;10.13;;
29816;SDS011;16805;52.956;5.906;2024-01-30T03:39:54;15.85;;;10.05;;
29816;SDS011;16805;52.956;5.906;2024-01-30T03:42:20;13.73;;;10.93;;
29816;SDS011;16805;52.956;5.906;2024-01-30T03:44:46;16.88;;;10.48;;
29816;SDS011;16805;52.956;5.906;2024-01-30T03:47:11;13.45;;;9.65;;
29816;SDS011;16805;52.956;5.906;2024-01-30T03:49:37;9.60;;;8.27;;
29816;SDS011;16805;52.956;5.906;2024-01-30T03:52:02;13.25;;;8.00;;
29816;SDS011;16805;52.956;5.906;2024-01-30T03:54:28;10.52;;;9.23;;
29816;SDS011;16805;52.956;5.906;2024-01-30T03:56:54;12.15;;;9.70;;
29816;SDS011;16805;52.956;5.906;2024-01-30T03:59:20;18.02;;;9.43;;
29816;SDS011;16805;52.956;5.906;2024-01-30T04:01:49;10.27;;;8.02;;
29816;SDS011;16805;52.956;5.906;2024-01-30T04:04:16;16.88;;;8.02;;
29816;SDS011;16805;52.956;5.906;2024-01-30T04:06:42;10.38;;;8.30;;
29816;SDS011;16805;52.956;5.906;2024-01-30T04:09:08;11.98;;;8.52;;
29816;SDS011;16805;52.956;5.906;2024-01-30T04:11:34;13.77;;;8.60;;
29816;SDS011;16805;52.956;5.906;2024-01-30T04:14:00;12.13;;;8.57;;
29816;SDS011;16805;52.956;5.906;2024-01-30T04:16:25;11.45;;;8.68;;
29816;SDS011;16805;52.956;5.906;2024-01-30T04:18:51;10.50;;;7.82;;
29816;SDS011;16805;52.956;5.906;2024-01-30T04:21:17;11.63;;;8.18;;
29816;SDS011;16805;52.956;5.906;2024-01-30T04:23:42;14.32;;;8.57;;
29816;SDS011;16805;52.956;5.906;2024-01-30T04:26:08;10.70;;;8.60;;
29816;SDS011;16805;52.956;5.906;2024-01-30T04:28:33;11.70;;;8.98;;
29816;SDS011;16805;52.956;5.906;2024-01-30T04:30:59;12.70;;;10.15;;
29816;SDS011;16805;52.956;5.906;2024-01-30T04:33:24;10.55;;;8.38;;
29816;SDS011;16805;52.956;5.906;2024-01-30T04:35:50;13.05;;;8.73;;
29816;SDS011;16805;52.956;5.906;2024-01-30T04:38:16;10.60;;;7.70;;
29816;SDS011;16805;52.956;5.906;2024-01-30T04:40:42;13.55;;;9.27;;
29816;SDS011;16805;52.956;5.906;2024-01-30T04:43:08;15.18;;;9.77;;
29816;SDS011;16805;52.956;5.906;2024-01-30T04:45:34;11.30;;;8.48;;
29816;SDS011;16805;52.956;5.906;2024-01-30T04:47:59;12.50;;;9.80;;
29816;SDS011;16805;52.956;5.906;2024-01-30T04:50:25;13.90;;;9.27;;
29816;SDS011;16805;52.956;5.906;2024-01-30T04:52:51;11.30;;;8.80;;
29816;SDS011;16805;52.956;5.906;2024-01-30T04:55:17;10.65;;;7.20;;
29816;SDS011;16805;52.956;5.906;2024-01-30T04:57:43;10.85;;;8.05;;
29816;SDS011;16805;52.956;5.906;2024-01-30T05:03:19;11.60;;;9.43;;
29816;SDS011;16805;52.956;5.906;2024-01-30T05:05:44;13.73;;;9.95;;
29816;SDS011;16805;52.956;5.906;2024-01-30T05:08:10;10.65;;;8.60;;
29816;SDS011;16805;52.956;5.906;2024-01-30T05:10:36;11.55;;;7.57;;
29816;SDS011;16805;52.956;5.906;2024-01-30T05:13:01;8.93;;;7.05;;
29816;SDS011;16805;52.956;5.906;2024-01-30T05:15:27;11.65;;;8.20;;
29816;SDS011;16805;52.956;5.906;2024-01-30T05:17:52;9.43;;;7.75;;
29816;SDS011;16805;52.956;5.906;2024-01-30T05:20:18;10.20;;;8.32;;
29816;SDS011;16805;52.956;5.906;2024-01-30T05:22:45;12.48;;;8.05;;
29816;SDS011;16805;52.956;5.906;2024-01-30T05:25:11;12.23;;;7.60;;
29816;SDS011;16805;52.956;5.906;2024-01-30T05:27:40;11.32;;;8.00;;
29816;SDS011;16805;52.956;5.906;2024-01-30T05:30:06;10.55;;;7.95;;
29816;SDS011;16805;52.956;5.906;2024-01-30T05:32:32;12.48;;;7.40;;
29816;SDS011;16805;52.956;5.906;2024-01-30T05:34:57;10.05;;;7.20;;
29816;SDS011;16805;52.956;5.906;2024-01-30T05:37:23;9.60;;;7.60;;
29816;SDS011;16805;52.956;5.906;2024-01-30T05:39:49;14.15;;;6.57;;
29816;SDS011;16805;52.956;5.906;2024-01-30T05:42:14;12.98;;;7.53;;
29816;SDS011;16805;52.956;5.906;2024-01-30T05:44:41;9.07;;;7.68;;
29816;SDS011;16805;52.956;5.906;2024-01-30T05:47:07;9.65;;;7.82;;
29816;SDS011;16805;52.956;5.906;2024-01-30T05:49:33;16.85;;;9.20;;
29816;SDS011;16805;52.956;5.906;2024-01-30T05:51:59;10.30;;;7.85;;
29816;SDS011;16805;52.956;5.906;2024-01-30T05:54:27;11.15;;;8.35;;
29816;SDS011;16805;52.956;5.906;2024-01-30T05:56:52;14.15;;;8.25;;
29816;SDS011;16805;52.956;5.906;2024-01-30T05:59:18;9.52;;;7.65;;
29816;SDS011;16805;52.956;5.906;2024-01-30T06:01:46;12.02;;;8.60;;
29816;SDS011;16805;52.956;5.906;2024-01-30T06:04:12;22.17;;;8.82;;
29816;SDS011;16805;52.956;5.906;2024-01-30T06:06:38;11.98;;;7.85;;
29816;SDS011;16805;52.956;5.906;2024-01-30T06:09:04;14.95;;;7.93;;
29816;SDS011;16805;52.956;5.906;2024-01-30T06:11:29;15.38;;;8.55;;
29816;SDS011;16805;52.956;5.906;2024-01-30T06:13:55;13.05;;;7.80;;
29816;SDS011;16805;52.956;5.906;2024-01-30T06:16:20;8.63;;;6.55;;
29816;SDS011;16805;52.956;5.906;2024-01-30T06:18:46;10.20;;;5.90;;
29816;SDS011;16805;52.956;5.906;2024-01-30T06:21:12;7.38;;;6.65;;
29816;SDS011;16805;52.956;5.906;2024-01-30T06:23:38;14.05;;;6.78;;
29816;SDS011;16805;52.956;5.906;2024-01-30T06:26:04;9.23;;;6.78;;
29816;SDS011;16805;52.956;5.906;2024-01-30T06:28:31;10.80;;;8.55;;
29816;SDS011;16805;52.956;5.906;2024-01-30T06:30:56;18.23;;;7.55;;
29816;SDS011;16805;52.956;5.906;2024-01-30T06:33:22;10.55;;;7.68;;
29816;SDS011;16805;52.956;5.906;2024-01-30T06:35:48;9.82;;;7.00;;
29816;SDS011;16805;52.956;5.906;2024-01-30T06:38:13;9.77;;;6.95;;
29816;SDS011;16805;52.956;5.906;2024-01-30T06:40:40;11.60;;;7.03;;
29816;SDS011;16805;52.956;5.906;2024-01-30T06:43:06;9.23;;;7.15;;
29816;SDS011;16805;52.956;5.906;2024-01-30T06:45:32;8.15;;;6.40;;
29816;SDS011;16805;52.956;5.906;2024-01-30T06:47:59;9.48;;;6.75;;
29816;SDS011;16805;52.956;5.906;2024-01-30T06:50:25;8.35;;;7.00;;
29816;SDS011;16805;52.956;5.906;2024-01-30T06:52:51;11.00;;;6.70;;
29816;SDS011;16805;52.956;5.906;2024-01-30T06:55:17;8.93;;;6.95;;
29816;SDS011;16805;52.956;5.906;2024-01-30T06:57:43;11.45;;;5.78;;
29816;SDS011;16805;52.956;5.906;2024-01-30T07:00:09;8.45;;;6.88;;
29816;SDS011;16805;52.956;5.906;2024-01-30T07:02:35;8.63;;;6.63;;
29816;SDS011;16805;52.956;5.906;2024-01-30T07:05:01;10.07;;;6.30;;
29816;SDS011;16805;52.956;5.906;2024-01-30T07:07:28;12.25;;;9.30;;
29816;SDS011;16805;52.956;5.906;2024-01-30T07:09:53;8.18;;;7.32;;
29816;SDS011;16805;52.956;5.906;2024-01-30T07:12:21;8.00;;;6.40;;
29816;SDS011;16805;52.956;5.906;2024-01-30T07:14:49;10.40;;;7.13;;
29816;SDS011;16805;52.956;5.906;2024-01-30T07:17:15;7.93;;;5.32;;
29816;SDS011;16805;52.956;5.906;2024-01-30T07:19:41;10.52;;;6.97;;
29816;SDS011;16805;52.956;5.906;2024-01-30T07:22:06;8.13;;;6.03;;
29816;SDS011;16805;52.956;5.906;2024-01-30T07:24:32;10.57;;;7.03;;
29816;SDS011;16805;52.956;5.906;2024-01-30T07:26:58;8.02;;;6.45;;
29816;SDS011;16805;52.956;5.906;2024-01-30T07:29:24;7.18;;;5.28;;
29816;SDS011;16805;52.956;5.906;2024-01-30T07:31:49;7.55;;;6.57;;
29816;SDS011;16805;52.956;5.906;2024-01-30T07:34:15;8.57;;;6.38;;
29816;SDS011;16805;52.956;5.906;2024-01-30T07:36:40;9.10;;;6.07;;
29816;SDS011;16805;52.956;5.906;2024-01-30T07:39:06;12.40;;;6.90;;
29816;SDS011;16805;52.956;5.906;2024-01-30T07:41:32;7.28;;;6.00;;
29816;SDS011;16805;52.956;5.906;2024-01-30T07:43:58;13.77;;;7.38;;
29816;SDS011;16805;52.956;5.906;2024-01-30T07:46:23;9.43;;;7.72;;
29816;SDS011;16805;52.956;5.906;2024-01-30T07:48:49;7.72;;;6.25;;
29816;SDS011;16805;52.956;5.906;2024-01-30T07:51:14;8.43;;;7.13;;
29816;SDS011;16805;52.956;5.906;2024-01-30T07:53:40;8.30;;;5.60;;
29816;SDS011;16805;52.956;5.906;2024-01-30T07:56:06;8.77;;;6.25;;
29816;SDS011;16805;52.956;5.906;2024-01-30T07:58:32;8.82;;;5.53;;
29816;SDS011;16805;52.956;5.906;2024-01-30T08:00:57;13.18;;;6.00;;
29816;SDS011;16805;52.956;5.906;2024-01-30T08:03:25;8.35;;;6.53;;
29816;SDS011;16805;52.956;5.906;2024-01-30T08:05:51;7.45;;;5.78;;
29816;SDS011;16805;52.956;5.906;2024-01-30T08:08:16;8.57;;;6.00;;
29816;SDS011;16805;52.956;5.906;2024-01-30T08:10:42;6.45;;;5.38;;
29816;SDS011;16805;52.956;5.906;2024-01-30T08:13:08;6.00;;;5.28;;
29816;SDS011;16805;52.956;5.906;2024-01-30T08:15:34;7.60;;;5.93;;
29816;SDS011;16805;52.956;5.906;2024-01-30T08:17:59;7.32;;;5.63;;
29816;SDS011;16805;52.956;5.906;2024-01-30T08:20:25;6.50;;;5.32;;
29816;SDS011;16805;52.956;5.906;2024-01-30T08:22:51;8.60;;;5.63;;
29816;SDS011;16805;52.956;5.906;2024-01-30T08:25:17;10.20;;;6.20;;
29816;SDS011;16805;52.956;5.906;2024-01-30T08:27:42;9.80;;;5.93;;
29816;SDS011;16805;52.956;5.906;2024-01-30T08:30:08;9.07;;;7.10;;
29816;SDS011;16805;52.956;5.906;2024-01-30T08:32:34;12.38;;;6.00;;
29816;SDS011;16805;52.956;5.906;2024-01-30T08:35:00;8.65;;;5.95;;
29816;SDS011;16805;52.956;5.906;2024-01-30T08:37:28;14.77;;;6.22;;
29816;SDS011;16805;52.956;5.906;2024-01-30T08:39:54;8.27;;;5.70;;
29816;SDS011;16805;52.956;5.906;2024-01-30T08:42:20;10.90;;;5.68;;
29816;SDS011;16805;52.956;5.906;2024-01-30T08:44:47;8.90;;;6.10;;
29816;SDS011;16805;52.956;5.906;2024-01-30T08:47:14;14.45;;;6.53;;
29816;SDS011;16805;52.956;5.906;2024-01-30T08:49:41;7.53;;;5.68;;
29816;SDS011;16805;52.956;5.906;2024-01-30T08:52:09;9.55;;;6.18;;
29816;SDS011;16805;52.956;5.906;2024-01-30T08:54:37;9.18;;;6.13;;
29816;SDS011;16805;52.956;5.906;2024-01-30T08:57:03;7.05;;;6.10;;
29816;SDS011;16805;52.956;5.906;2024-01-30T08:59:29;9.43;;;5.93;;
29816;SDS011;16805;52.956;5.906;2024-01-30T09:01:55;8.85;;;5.32;;
29816;SDS011;16805;52.956;5.906;2024-01-30T09:04:22;9.20;;;5.85;;
29816;SDS011;16805;52.956;5.906;2024-01-30T09:06:48;8.77;;;6.53;;
29816;SDS011;16805;52.956;5.906;2024-01-30T09:09:14;9.77;;;7.05;;
29816;SDS011;16805;52.956;5.906;2024-01-30T09:11:40;12.00;;;6.55;;
29816;SDS011;16805;52.956;5.906;2024-01-30T09:14:06;7.70;;;5.70;;
29816;SDS011;16805;52.956;5.906;2024-01-30T09:16:31;7.63;;;5.65;;
29816;SDS011;16805;52.956;5.906;2024-01-30T09:18:57;7.90;;;5.65;;
29816;SDS011;16805;52.956;5.906;2024-01-30T09:21:23;11.57;;;6.30;;
29816;SDS011;16805;52.956;5.906;2024-01-30T09:23:48;11.43;;;6.15;;
29816;SDS011;16805;52.956;5.906;2024-01-30T09:26:14;6.68;;;5.55;;
29816;SDS011;16805;52.956;5.906;2024-01-30T09:28:40;8.77;;;6.15;;
29816;SDS011;16805;52.956;5.906;2024-01-30T09:31:10;9.52;;;6.85;;
29816;SDS011;16805;52.956;5.906;2024-01-30T09:33:36;11.23;;;6.57;;
29816;SDS011;16805;52.956;5.906;2024-01-30T09:36:02;8.88;;;5.63;;
29816;SDS011;16805;52.956;5.906;2024-01-30T09:38:27;9.38;;;5.80;;
29816;SDS011;16805;52.956;5.906;2024-01-30T09:40:53;11.27;;;6.30;;
29816;SDS011;16805;52.956;5.906;2024-01-30T09:43:23;11.02;;;6.13;;
29816;SDS011;16805;52.956;5.906;2024-01-30T09:45:52;9.82;;;6.03;;
29816;SDS011;16805;52.956;5.906;2024-01-30T09:48:19;8.07;;;5.53;;
29816;SDS011;16805;52.956;5.906;2024-01-30T09:50:44;11.38;;;6.15;;
29816;SDS011;16805;52.956;5.906;2024-01-30T09:53:11;12.00;;;6.25;;
29816;SDS011;16805;52.956;5.906;2024-01-30T09:55:39;11.23;;;6.22;;
29816;SDS011;16805;52.956;5.906;2024-01-30T09:58:08;7.32;;;5.13;;
29816;SDS011;16805;52.956;5.906;2024-01-30T10:00:33;11.23;;;5.75;;
29816;SDS011;16805;52.956;5.906;2024-01-30T10:03:01;9.38;;;6.28;;
29816;SDS011;16805;52.956;5.906;2024-01-30T10:05:27;13.52;;;6.70;;
29816;SDS011;16805;52.956;5.906;2024-01-30T10:07:53;9.02;;;5.78;;
29816;SDS011;16805;52.956;5.906;2024-01-30T10:10:21;8.05;;;6.80;;
29816;SDS011;16805;52.956;5.906;2024-01-30T10:12:50;15.35;;;6.93;;
29816;SDS011;16805;52.956;5.906;2024-01-30T10:15:16;9.95;;;7.00;;
29816;SDS011;16805;52.956;5.906;2024-01-30T10:17:44;9.43;;;6.85;;
29816;SDS011;16805;52.956;5.906;2024-01-30T10:20:10;13.82;;;7.05;;
29816;SDS011;16805;52.956;5.906;2024-01-30T10:22:36;9.00;;;6.53;;
29816;SDS011;16805;52.956;5.906;2024-01-30T10:25:02;9.60;;;5.72;;
29816;SDS011;16805;52.956;5.906;2024-01-30T10:27:28;10.73;;;6.10;;
29816;SDS011;16805;52.956;5.906;2024-01-30T10:29:54;7.78;;;5.25;;
29816;SDS011;16805;52.956;5.906;2024-01-30T10:32:20;11.70;;;6.13;;
29816;SDS011;16805;52.956;5.906;2024-01-30T10:34:46;10.02;;;6.25;;
29816;SDS011;16805;52.956;5.906;2024-01-30T10:37:12;8.02;;;5.82;;
29816;SDS011;16805;52.956;5.906;2024-01-30T10:39:40;14.77;;;5.28;;
29816;SDS011;16805;52.956;5.906;2024-01-30T10:42:12;13.32;;;5.95;;
29816;SDS011;16805;52.956;5.906;2024-01-30T10:47:44;10.75;;;5.32;;
29816;SDS011;16805;52.956;5.906;2024-01-30T10:50:14;11.88;;;4.43;;
29816;SDS011;16805;52.956;5.906;2024-01-30T10:52:41;11.10;;;4.63;;
29816;SDS011;16805;52.956;5.906;2024-01-30T10:55:07;10.23;;;3.78;;
29816;SDS011;16805;52.956;5.906;2024-01-30T10:57:36;10.73;;;3.83;;
29816;SDS011;16805;52.956;5.906;2024-01-30T11:00:11;6.13;;;3.53;;
29816;SDS011;16805;52.956;5.906;2024-01-30T11:02:44;9.50;;;2.63;;
29816;SDS011;16805;52.956;5.906;2024-01-30T11:05:11;5.25;;;2.85;;
29816;SDS011;16805;52.956;5.906;2024-01-30T11:07:38;5.10;;;2.53;;
29816;SDS011;16805;52.956;5.906;2024-01-30T11:10:06;6.60;;;1.30;;
29816;SDS011;16805;52.956;5.906;2024-01-30T11:12:37;2.70;;;0.73;;
29816;SDS011;16805;52.956;5.906;2024-01-30T11:15:09;3.03;;;0.77;;
29816;SDS011;16805;52.956;5.906;2024-01-30T11:20:15;0.10;;;0.10;;
29816;SDS011;16805;52.956;5.906;2024-01-30T11:22:42;0.30;;;0.30;;
29816;SDS011;16805;52.956;5.906;2024-01-30T11:25:13;2.65;;;0.68;;
29816;SDS011;16805;52.956;5.906;2024-01-30T11:27:39;1.05;;;0.30;;
29816;SDS011;16805;52.956;5.906;2024-01-30T11:30:07;2.45;;;0.38;;
29816;SDS011;16805;52.956;5.906;2024-01-30T11:32:33;0.57;;;0.20;;
29816;SDS011;16805;52.956;5.906;2024-01-30T11:34:58;2.25;;;0.40;;
29816;SDS011;16805;52.956;5.906;2024-01-30T11:37:25;3.70;;;0.60;;
29816;SDS011;16805;52.956;5.906;2024-01-30T11:39:53;3.65;;;0.52;;
29816;SDS011;16805;52.956;5.906;2024-01-30T11:42:19;2.83;;;0.50;;
29816;SDS011;16805;52.956;5.906;2024-01-30T11:44:47;1.88;;;0.50;;
29816;SDS011;16805;52.956;5.906;2024-01-30T11:47:12;4.40;;;0.52;;
29816;SDS011;16805;52.956;5.906;2024-01-30T11:49:39;4.53;;;0.50;;
29816;SDS011;16805;52.956;5.906;2024-01-30T11:52:05;1.95;;;0.63;;
29816;SDS011;16805;52.956;5.906;2024-01-30T11:54:30;3.03;;;0.52;;
29816;SDS011;16805;52.956;5.906;2024-01-30T11:56:56;1.92;;;0.60;;
29816;SDS011;16805;52.956;5.906;2024-01-30T11:59:22;1.60;;;0.50;;
29816;SDS011;16805;52.956;5.906;2024-01-30T12:01:49;3.83;;;0.60;;
29816;SDS011;16805;52.956;5.906;2024-01-30T12:04:16;3.35;;;0.70;;
29816;SDS011;16805;52.956;5.906;2024-01-30T12:06:42;3.88;;;0.65;;
29816;SDS011;16805;52.956;5.906;2024-01-30T12:09:08;2.92;;;0.70;;
29816;SDS011;16805;52.956;5.906;2024-01-30T12:11:47;1.48;;;0.55;;
29816;SDS011;16805;52.956;5.906;2024-01-30T12:14:14;3.13;;;0.50;;
29816;SDS011;16805;52.956;5.906;2024-01-30T12:16:41;1.20;;;0.85;;
29816;SDS011;16805;52.956;5.906;2024-01-30T12:19:07;1.27;;;0.40;;
29816;SDS011;16805;52.956;5.906;2024-01-30T12:21:33;2.72;;;0.50;;
29816;SDS011;16805;52.956;5.906;2024-01-30T12:24:00;2.10;;;0.40;;
29816;SDS011;16805;52.956;5.906;2024-01-30T12:26:25;2.13;;;0.63;;
29816;SDS011;16805;52.956;5.906;2024-01-30T12:28:54;1.60;;;0.50;;
29816;SDS011;16805;52.956;5.906;2024-01-30T12:31:31;0.50;;;0.43;;
29816;SDS011;16805;52.956;5.906;2024-01-30T12:33:59;2.88;;;0.30;;
29816;SDS011;16805;52.956;5.906;2024-01-30T12:36:25;1.17;;;0.55;;
29816;SDS011;16805;52.956;5.906;2024-01-30T12:38:50;5.35;;;0.65;;
29816;SDS011;16805;52.956;5.906;2024-01-30T12:41:16;1.17;;;0.50;;
29816;SDS011;16805;52.956;5.906;2024-01-30T12:43:42;1.17;;;0.68;;
29816;SDS011;16805;52.956;5.906;2024-01-30T12:46:08;1.15;;;0.40;;
29816;SDS011;16805;52.956;5.906;2024-01-30T12:48:34;3.30;;;0.68;;
29816;SDS011;16805;52.956;5.906;2024-01-30T12:51:00;3.70;;;0.82;;
29816;SDS011;16805;52.956;5.906;2024-01-30T12:53:26;2.08;;;0.50;;
29816;SDS011;16805;52.956;5.906;2024-01-30T12:55:52;3.28;;;0.32;;
29816;SDS011;16805;52.956;5.906;2024-01-30T12:58:19;2.13;;;0.50;;
29816;SDS011;16805;52.956;5.906;2024-01-30T13:00:45;0.70;;;0.30;;
29816;SDS011;16805;52.956;5.906;2024-01-30T13:03:10;4.28;;;0.38;;
29816;SDS011;16805;52.956;5.906;2024-01-30T13:05:36;1.90;;;0.30;;
29816;SDS011;16805;52.956;5.906;2024-01-30T13:08:02;1.52;;;0.40;;
29816;SDS011;16805;52.956;5.906;2024-01-30T13:10:28;0.52;;;0.30;;
29816;SDS011;16805;52.956;5.906;2024-01-30T13:12:54;2.83;;;0.40;;
29816;SDS011;16805;52.956;5.906;2024-01-30T13:15:19;1.15;;;0.40;;
29816;SDS011;16805;52.956;5.906;2024-01-30T13:17:45;1.58;;;0.38;;
29816;SDS011;16805;52.956;5.906;2024-01-30T13:20:12;1.60;;;0.32;;
29816;SDS011;16805;52.956;5.906;2024-01-30T13:22:42;1.30;;;0.45;;
29816;SDS011;16805;52.956;5.906;2024-01-30T13:25:08;4.22;;;0.60;;
29816;SDS011;16805;52.956;5.906;2024-01-30T13:27:34;4.03;;;0.57;;
29816;SDS011;16805;52.956;5.906;2024-01-30T13:30:00;0.70;;;0.38;;
29816;SDS011;16805;52.956;5.906;2024-01-30T13:32:26;0.80;;;0.32;;
29816;SDS011;16805;52.956;5.906;2024-01-30T13:34:51;2.63;;;0.82;;
29816;SDS011;16805;52.956;5.906;2024-01-30T13:37:17;2.38;;;0.68;;
29816;SDS011;16805;52.956;5.906;2024-01-30T13:39:43;1.65;;;0.43;;
29816;SDS011;16805;52.956;5.906;2024-01-30T13:42:08;2.80;;;0.52;;
29816;SDS011;16805;52.956;5.906;2024-01-30T13:44:35;2.60;;;0.90;;
29816;SDS011;16805;52.956;5.906;2024-01-30T13:47:02;1.88;;;0.40;;
29816;SDS011;16805;52.956;5.906;2024-01-30T13:49:27;1.38;;;0.80;;
29816;SDS011;16805;52.956;5.906;2024-01-30T13:51:53;0.60;;;0.50;;
29816;SDS011;16805;52.956;5.906;2024-01-30T13:54:19;3.17;;;0.60;;
29816;SDS011;16805;52.956;5.906;2024-01-30T13:56:44;2.95;;;0.75;;
29816;SDS011;16805;52.956;5.906;2024-01-30T13:59:10;4.88;;;1.15;;
29816;SDS011;16805;52.956;5.906;2024-01-30T14:01:35;3.92;;;0.73;;
29816;SDS011;16805;52.956;5.906;2024-01-30T14:04:01;4.18;;;0.80;;
29816;SDS011;16805;52.956;5.906;2024-01-30T14:06:28;3.70;;;0.60;;
29816;SDS011;16805;52.956;5.906;2024-01-30T14:08:54;3.25;;;0.70;;
29816;SDS011;16805;52.956;5.906;2024-01-30T14:11:19;2.13;;;0.80;;
29816;SDS011;16805;52.956;5.906;2024-01-30T14:13:45;2.72;;;0.70;;
29816;SDS011;16805;52.956;5.906;2024-01-30T14:16:10;0.60;;;0.60;;
29816;SDS011;16805;52.956;5.906;2024-01-30T14:18:36;2.65;;;0.80;;
29816;SDS011;16805;52.956;5.906;2024-01-30T14:21:01;1.55;;;1.00;;
29816;SDS011;16805;52.956;5.906;2024-01-30T14:23:27;1.20;;;1.00;;
29816;SDS011;16805;52.956;5.906;2024-01-30T14:25:53;3.78;;;1.08;;
29816;SDS011;16805;52.956;5.906;2024-01-30T14:28:19;2.33;;;1.00;;
29816;SDS011;16805;52.956;5.906;2024-01-30T14:30:44;1.80;;;0.90;;
29816;SDS011;16805;52.956;5.906;2024-01-30T14:33:10;1.30;;;0.68;;
29816;SDS011;16805;52.956;5.906;2024-01-30T14:35:35;2.60;;;0.73;;
29816;SDS011;16805;52.956;5.906;2024-01-30T14:38:01;1.95;;;0.70;;
29816;SDS011;16805;52.956;5.906;2024-01-30T14:40:30;3.38;;;0.80;;